Terminal Aerodrome Forecast
Issued by NWS Wilmington, OH

Current Version | Previous Version | Text Only | Print | Product List | Glossary Off
Versions: 1 2 3 4 5 6 7 8 9 10 11 12 13 14 15 16 17 18

000
FTUS41 KILN 241100
TAFDAY
TAF
KDAY 241132Z 2412/2512 01008KT P6SM SCT040
     FM241400 02010KT P6SM BKN035
     FM242300 03006KT P6SM SKC
     FM250900 14003KT 5SM BR SKC=

USA.gov is the U.S. government's official web portal to all federal, state and local government web resources and services.